Terminal Aerodrome Forecast
Issued by NWS Louisville, KY

Home | Current Version | Previous Version | Text Only | Print | Product List | Glossary On
Versions: 1 2 3 4 5 6 7 8 9 10 11 12 13 14
000
FTUS43 KLMK 272326
TAFLEX
TAF
KLEX 272326Z 2800/2824 15007KT P6SM SCT120
     FM281200 18009KT P6SM OVC025
     FM281500 18013G25KT 6SM -SHRA BR VCTS BKN010 OVC035CB
     FM282100 20012KT P6SM VCSH OVC012=

USA.gov is the U.S. government's official web portal to all federal, state and local government web resources and services.